sensor_id;sensor_type;location;lat;lon;timestamp;temperature;humidity
22114;DHT22;11223;49.968;9.062;2022-11-20T00:00:43;2.50;99.90
22114;DHT22;11223;49.968;9.062;2022-11-20T00:03:08;2.50;99.90
22114;DHT22;11223;49.968;9.062;2022-11-20T00:05:34;2.40;99.90
22114;DHT22;11223;49.968;9.062;2022-11-20T00:07:59;2.40;99.90
22114;DHT22;11223;49.968;9.062;2022-11-20T00:10:25;2.40;99.90
22114;DHT22;11223;49.968;9.062;2022-11-20T00:12:51;2.40;99.90
22114;DHT22;11223;49.968;9.062;2022-11-20T00:15:17;2.40;99.90
22114;DHT22;11223;49.968;9.062;2022-11-20T00:17:43;2.40;99.90
22114;DHT22;11223;49.968;9.062;2022-11-20T00:20:09;2.40;99.90
22114;DHT22;11223;49.968;9.062;2022-11-20T00:22:36;2.40;99.90
22114;DHT22;11223;49.968;9.062;2022-11-20T00:25:01;2.40;99.90
22114;DHT22;11223;49.968;9.062;2022-11-20T00:27:27;2.40;99.90
22114;DHT22;11223;49.968;9.062;2022-11-20T00:29:53;2.40;99.90
22114;DHT22;11223;49.968;9.062;2022-11-20T00:32:18;2.40;99.90
22114;DHT22;11223;49.968;9.062;2022-11-20T00:34:44;2.40;99.90
22114;DHT22;11223;49.968;9.062;2022-11-20T00:37:10;2.40;99.90
22114;DHT22;11223;49.968;9.062;2022-11-20T00:39:35;2.40;99.90
22114;DHT22;11223;49.968;9.062;2022-11-20T00:42:01;2.40;99.90
22114;DHT22;11223;49.968;9.062;2022-11-20T00:44:26;2.40;99.90
22114;DHT22;11223;49.968;9.062;2022-11-20T00:46:52;2.40;99.90
22114;DHT22;11223;49.968;9.062;2022-11-20T00:49:17;2.50;99.90
22114;DHT22;11223;49.968;9.062;2022-11-20T00:51:43;2.50;99.90
22114;DHT22;11223;49.968;9.062;2022-11-20T00:54:08;2.40;99.90
22114;DHT22;11223;49.968;9.062;2022-11-20T00:56:34;2.40;99.90
22114;DHT22;11223;49.968;9.062;2022-11-20T00:59:00;2.50;99.90
22114;DHT22;11223;49.968;9.062;2022-11-20T01:01:26;2.40;99.90
22114;DHT22;11223;49.968;9.062;2022-11-20T01:03:56;2.40;99.90
22114;DHT22;11223;49.968;9.062;2022-11-20T01:06:22;2.40;99.90
22114;DHT22;11223;49.968;9.062;2022-11-20T01:08:50;2.50;99.90
22114;DHT22;11223;49.968;9.062;2022-11-20T01:11:21;2.40;99.90
22114;DHT22;11223;49.968;9.062;2022-11-20T01:13:49;2.40;99.90
22114;DHT22;11223;49.968;9.062;2022-11-20T01:16:18;2.50;99.90
22114;DHT22;11223;49.968;9.062;2022-11-20T01:18:46;2.40;99.90
22114;DHT22;11223;49.968;9.062;2022-11-20T01:21:17;2.40;99.90
22114;DHT22;11223;49.968;9.062;2022-11-20T01:23:44;2.40;99.90
22114;DHT22;11223;49.968;9.062;2022-11-20T01:26:16;2.40;99.90
22114;DHT22;11223;49.968;9.062;2022-11-20T01:28:42;2.40;99.90
22114;DHT22;11223;49.968;9.062;2022-11-20T01:31:17;2.30;99.90
22114;DHT22;11223;49.968;9.062;2022-11-20T01:33:44;2.30;99.90
22114;DHT22;11223;49.968;9.062;2022-11-20T01:36:10;2.30;99.90
22114;DHT22;11223;49.968;9.062;2022-11-20T01:38:36;2.30;99.90
22114;DHT22;11223;49.968;9.062;2022-11-20T01:41:03;2.30;99.90
22114;DHT22;11223;49.968;9.062;2022-11-20T01:43:28;2.30;99.90
22114;DHT22;11223;49.968;9.062;2022-11-20T01:46:13;2.30;99.90
22114;DHT22;11223;49.968;9.062;2022-11-20T01:54:23;2.30;99.90
22114;DHT22;11223;49.968;9.062;2022-11-20T01:56:52;2.30;99.90
22114;DHT22;11223;49.968;9.062;2022-11-20T01:59:22;2.30;99.90
22114;DHT22;11223;49.968;9.062;2022-11-20T02:01:49;2.30;99.90
22114;DHT22;11223;49.968;9.062;2022-11-20T02:04:15;2.30;99.90
22114;DHT22;11223;49.968;9.062;2022-11-20T02:06:49;2.30;99.90
22114;DHT22;11223;49.968;9.062;2022-11-20T02:09:16;2.30;99.90
22114;DHT22;11223;49.968;9.062;2022-11-20T02:11:42;2.30;99.90
22114;DHT22;11223;49.968;9.062;2022-11-20T02:14:08;2.30;99.90
22114;DHT22;11223;49.968;9.062;2022-11-20T02:16:37;2.30;99.90
22114;DHT22;11223;49.968;9.062;2022-11-20T02:19:07;2.30;99.90
22114;DHT22;11223;49.968;9.062;2022-11-20T02:24:24;2.30;99.90
22114;DHT22;11223;49.968;9.062;2022-11-20T02:26:51;2.30;99.90
22114;DHT22;11223;49.968;9.062;2022-11-20T02:29:23;2.30;99.90
22114;DHT22;11223;49.968;9.062;2022-11-20T02:31:50;2.30;99.90
22114;DHT22;11223;49.968;9.062;2022-11-20T02:34:16;2.30;99.90
22114;DHT22;11223;49.968;9.062;2022-11-20T02:36:42;2.30;99.90
22114;DHT22;11223;49.968;9.062;2022-11-20T02:39:10;2.30;99.90
22114;DHT22;11223;49.968;9.062;2022-11-20T02:41:37;2.30;99.90
22114;DHT22;11223;49.968;9.062;2022-11-20T02:44:04;2.30;99.90
22114;DHT22;11223;49.968;9.062;2022-11-20T02:46:31;2.30;99.90
22114;DHT22;11223;49.968;9.062;2022-11-20T02:48:57;2.30;99.90
22114;DHT22;11223;49.968;9.062;2022-11-20T02:51:23;2.40;99.90
22114;DHT22;11223;49.968;9.062;2022-11-20T02:53:49;2.40;99.90
22114;DHT22;11223;49.968;9.062;2022-11-20T02:56:15;2.40;99.90
22114;DHT22;11223;49.968;9.062;2022-11-20T02:58:41;2.40;99.90
22114;DHT22;11223;49.968;9.062;2022-11-20T03:01:07;2.40;99.90
22114;DHT22;11223;49.968;9.062;2022-11-20T03:03:32;2.30;99.90
22114;DHT22;11223;49.968;9.062;2022-11-20T03:05:59;2.30;99.90
22114;DHT22;11223;49.968;9.062;2022-11-20T03:08:24;2.30;99.90
22114;DHT22;11223;49.968;9.062;2022-11-20T03:10:50;2.30;99.90
22114;DHT22;11223;49.968;9.062;2022-11-20T03:13:16;2.30;99.90
22114;DHT22;11223;49.968;9.062;2022-11-20T03:15:41;2.30;99.90
22114;DHT22;11223;49.968;9.062;2022-11-20T03:18:07;2.30;99.90
22114;DHT22;11223;49.968;9.062;2022-11-20T03:20:33;2.30;99.90
22114;DHT22;11223;49.968;9.062;2022-11-20T03:22:59;2.30;99.90
22114;DHT22;11223;49.968;9.062;2022-11-20T03:25:24;2.30;99.90
22114;DHT22;11223;49.968;9.062;2022-11-20T03:27:50;2.30;99.90
22114;DHT22;11223;49.968;9.062;2022-11-20T03:30:16;2.30;99.90
22114;DHT22;11223;49.968;9.062;2022-11-20T03:32:42;2.30;99.90
22114;DHT22;11223;49.968;9.062;2022-11-20T03:35:08;2.30;99.90
22114;DHT22;11223;49.968;9.062;2022-11-20T03:37:33;2.30;99.90
22114;DHT22;11223;49.968;9.062;2022-11-20T03:39:59;2.30;99.90
22114;DHT22;11223;49.968;9.062;2022-11-20T03:42:24;2.30;99.90
22114;DHT22;11223;49.968;9.062;2022-11-20T03:45:09;2.30;99.90
22114;DHT22;11223;49.968;9.062;2022-11-20T03:47:34;2.30;99.90
22114;DHT22;11223;49.968;9.062;2022-11-20T03:50:00;2.30;99.90
22114;DHT22;11223;49.968;9.062;2022-11-20T03:52:25;2.30;99.90
22114;DHT22;11223;49.968;9.062;2022-11-20T03:54:51;2.30;99.90
22114;DHT22;11223;49.968;9.062;2022-11-20T03:57:17;2.30;99.90
22114;DHT22;11223;49.968;9.062;2022-11-20T03:59:42;2.30;99.90
22114;DHT22;11223;49.968;9.062;2022-11-20T04:02:08;2.30;99.90
22114;DHT22;11223;49.968;9.062;2022-11-20T04:04:33;2.30;99.90
22114;DHT22;11223;49.968;9.062;2022-11-20T04:06:59;2.30;99.90
22114;DHT22;11223;49.968;9.062;2022-11-20T04:09:25;2.30;99.90
22114;DHT22;11223;49.968;9.062;2022-11-20T04:11:50;2.30;99.90
22114;DHT22;11223;49.968;9.062;2022-11-20T04:14:16;2.30;99.90
22114;DHT22;11223;49.968;9.062;2022-11-20T04:16:42;2.30;99.90
22114;DHT22;11223;49.968;9.062;2022-11-20T04:19:15;2.30;99.90
22114;DHT22;11223;49.968;9.062;2022-11-20T04:21:42;2.30;99.90
22114;DHT22;11223;49.968;9.062;2022-11-20T04:24:08;2.30;99.90
22114;DHT22;11223;49.968;9.062;2022-11-20T04:26:34;2.30;99.90
22114;DHT22;11223;49.968;9.062;2022-11-20T04:29:00;2.40;99.90
22114;DHT22;11223;49.968;9.062;2022-11-20T04:31:30;2.40;99.90
22114;DHT22;11223;49.968;9.062;2022-11-20T04:33:59;2.40;99.90
22114;DHT22;11223;49.968;9.062;2022-11-20T04:36:27;2.40;99.90
22114;DHT22;11223;49.968;9.062;2022-11-20T04:38:54;2.40;99.90
22114;DHT22;11223;49.968;9.062;2022-11-20T04:41:22;2.40;99.90
22114;DHT22;11223;49.968;9.062;2022-11-20T04:43:49;2.40;99.90
22114;DHT22;11223;49.968;9.062;2022-11-20T04:46:17;2.40;99.90
22114;DHT22;11223;49.968;9.062;2022-11-20T04:48:42;2.40;99.90
22114;DHT22;11223;49.968;9.062;2022-11-20T04:51:08;2.40;99.90
22114;DHT22;11223;49.968;9.062;2022-11-20T04:53:34;2.40;99.90
22114;DHT22;11223;49.968;9.062;2022-11-20T04:56:01;2.50;99.90
22114;DHT22;11223;49.968;9.062;2022-11-20T04:58:27;2.40;99.90
22114;DHT22;11223;49.968;9.062;2022-11-20T05:00:52;2.50;99.90
22114;DHT22;11223;49.968;9.062;2022-11-20T05:03:18;2.50;99.90
22114;DHT22;11223;49.968;9.062;2022-11-20T05:05:44;2.50;99.90
22114;DHT22;11223;49.968;9.062;2022-11-20T05:08:09;2.50;99.90
22114;DHT22;11223;49.968;9.062;2022-11-20T05:10:35;2.50;99.90
22114;DHT22;11223;49.968;9.062;2022-11-20T05:13:00;2.50;99.90
22114;DHT22;11223;49.968;9.062;2022-11-20T05:15:26;2.60;99.90
22114;DHT22;11223;49.968;9.062;2022-11-20T05:17:52;2.50;99.90
22114;DHT22;11223;49.968;9.062;2022-11-20T05:20:18;2.50;99.90
22114;DHT22;11223;49.968;9.062;2022-11-20T05:22:44;2.50;99.90
22114;DHT22;11223;49.968;9.062;2022-11-20T05:25:11;2.60;99.90
22114;DHT22;11223;49.968;9.062;2022-11-20T05:27:37;2.60;99.90
22114;DHT22;11223;49.968;9.062;2022-11-20T05:30:04;2.60;99.90
22114;DHT22;11223;49.968;9.062;2022-11-20T05:32:30;2.60;99.90
22114;DHT22;11223;49.968;9.062;2022-11-20T05:34:55;2.60;99.90
22114;DHT22;11223;49.968;9.062;2022-11-20T05:37:21;2.60;99.90
22114;DHT22;11223;49.968;9.062;2022-11-20T05:39:46;2.60;99.90
22114;DHT22;11223;49.968;9.062;2022-11-20T05:42:12;2.60;99.90
22114;DHT22;11223;49.968;9.062;2022-11-20T05:45:01;2.60;99.90
22114;DHT22;11223;49.968;9.062;2022-11-20T05:47:32;2.60;99.90
22114;DHT22;11223;49.968;9.062;2022-11-20T05:49:57;2.60;99.90
22114;DHT22;11223;49.968;9.062;2022-11-20T05:52:23;2.60;99.90
22114;DHT22;11223;49.968;9.062;2022-11-20T05:54:49;2.60;99.90
22114;DHT22;11223;49.968;9.062;2022-11-20T05:57:15;2.60;99.90
22114;DHT22;11223;49.968;9.062;2022-11-20T05:59:40;2.60;99.90
22114;DHT22;11223;49.968;9.062;2022-11-20T06:02:06;2.70;99.90
22114;DHT22;11223;49.968;9.062;2022-11-20T06:04:32;2.70;99.90
22114;DHT22;11223;49.968;9.062;2022-11-20T06:06:57;2.70;99.90
22114;DHT22;11223;49.968;9.062;2022-11-20T06:09:23;2.60;99.90
22114;DHT22;11223;49.968;9.062;2022-11-20T06:11:48;2.60;99.90
22114;DHT22;11223;49.968;9.062;2022-11-20T06:14:14;2.70;99.90
22114;DHT22;11223;49.968;9.062;2022-11-20T06:16:39;2.70;99.90
22114;DHT22;11223;49.968;9.062;2022-11-20T06:19:05;2.70;99.90
22114;DHT22;11223;49.968;9.062;2022-11-20T06:21:31;2.70;99.90
22114;DHT22;11223;49.968;9.062;2022-11-20T06:23:56;2.70;99.90
22114;DHT22;11223;49.968;9.062;2022-11-20T06:26:27;2.70;99.90
22114;DHT22;11223;49.968;9.062;2022-11-20T06:28:53;2.70;99.90
22114;DHT22;11223;49.968;9.062;2022-11-20T06:31:23;2.70;99.90
22114;DHT22;11223;49.968;9.062;2022-11-20T06:33:49;2.70;99.90
22114;DHT22;11223;49.968;9.062;2022-11-20T06:36:17;2.80;99.90
22114;DHT22;11223;49.968;9.062;2022-11-20T06:38:43;2.80;99.90
22114;DHT22;11223;49.968;9.062;2022-11-20T06:41:11;2.80;99.90
22114;DHT22;11223;49.968;9.062;2022-11-20T06:43:38;2.80;99.90
22114;DHT22;11223;49.968;9.062;2022-11-20T06:46:03;2.80;99.90
22114;DHT22;11223;49.968;9.062;2022-11-20T06:48:29;2.80;99.90
22114;DHT22;11223;49.968;9.062;2022-11-20T06:50:56;2.80;99.90
22114;DHT22;11223;49.968;9.062;2022-11-20T06:53:22;2.80;99.90
22114;DHT22;11223;49.968;9.062;2022-11-20T06:55:50;2.80;99.90
22114;DHT22;11223;49.968;9.062;2022-11-20T06:58:17;2.80;99.90
22114;DHT22;11223;49.968;9.062;2022-11-20T07:00:43;2.80;99.90
22114;DHT22;11223;49.968;9.062;2022-11-20T07:03:10;2.80;99.90
22114;DHT22;11223;49.968;9.062;2022-11-20T07:05:37;2.80;99.90
22114;DHT22;11223;49.968;9.062;2022-11-20T07:08:04;2.90;99.90
22114;DHT22;11223;49.968;9.062;2022-11-20T07:10:30;2.80;99.90
22114;DHT22;11223;49.968;9.062;2022-11-20T07:12:56;2.90;99.90
22114;DHT22;11223;49.968;9.062;2022-11-20T07:15:23;2.90;99.90
22114;DHT22;11223;49.968;9.062;2022-11-20T07:17:49;2.90;99.90
22114;DHT22;11223;49.968;9.062;2022-11-20T07:20:15;2.80;99.90
22114;DHT22;11223;49.968;9.062;2022-11-20T07:22:41;2.80;99.90
22114;DHT22;11223;49.968;9.062;2022-11-20T07:25:07;2.80;99.90
22114;DHT22;11223;49.968;9.062;2022-11-20T07:27:33;2.90;99.90
22114;DHT22;11223;49.968;9.062;2022-11-20T07:29:59;2.80;99.90
22114;DHT22;11223;49.968;9.062;2022-11-20T07:32:25;2.90;99.90
22114;DHT22;11223;49.968;9.062;2022-11-20T07:34:51;2.90;99.90
22114;DHT22;11223;49.968;9.062;2022-11-20T07:37:17;2.90;99.90
22114;DHT22;11223;49.968;9.062;2022-11-20T07:39:43;2.90;99.90
22114;DHT22;11223;49.968;9.062;2022-11-20T07:42:09;3.00;99.90
22114;DHT22;11223;49.968;9.062;2022-11-20T07:44:35;3.00;99.90
22114;DHT22;11223;49.968;9.062;2022-11-20T07:47:01;3.00;99.90
22114;DHT22;11223;49.968;9.062;2022-11-20T07:49:27;3.00;99.90
22114;DHT22;11223;49.968;9.062;2022-11-20T07:51:53;3.00;99.90
22114;DHT22;11223;49.968;9.062;2022-11-20T07:54:19;3.00;99.90
22114;DHT22;11223;49.968;9.062;2022-11-20T07:56:46;3.00;99.90
22114;DHT22;11223;49.968;9.062;2022-11-20T07:59:11;3.00;99.90
22114;DHT22;11223;49.968;9.062;2022-11-20T08:01:38;3.00;99.90
22114;DHT22;11223;49.968;9.062;2022-11-20T08:04:04;3.00;99.90
22114;DHT22;11223;49.968;9.062;2022-11-20T08:06:30;3.10;99.90
22114;DHT22;11223;49.968;9.062;2022-11-20T08:08:56;3.10;99.90
22114;DHT22;11223;49.968;9.062;2022-11-20T08:11:21;3.10;99.90
22114;DHT22;11223;49.968;9.062;2022-11-20T08:14:06;3.20;99.90
22114;DHT22;11223;49.968;9.062;2022-11-20T08:16:45;3.20;99.90
22114;DHT22;11223;49.968;9.062;2022-11-20T08:19:12;3.10;99.90
22114;DHT22;11223;49.968;9.062;2022-11-20T08:21:38;3.20;99.90
22114;DHT22;11223;49.968;9.062;2022-11-20T08:24:04;3.20;99.90
22114;DHT22;11223;49.968;9.062;2022-11-20T08:26:29;3.20;99.90
22114;DHT22;11223;49.968;9.062;2022-11-20T08:28:56;3.30;99.90
22114;DHT22;11223;49.968;9.062;2022-11-20T08:31:26;3.30;99.90
22114;DHT22;11223;49.968;9.062;2022-11-20T08:33:52;3.30;99.90
22114;DHT22;11223;49.968;9.062;2022-11-20T08:36:21;3.30;99.90
22114;DHT22;11223;49.968;9.062;2022-11-20T08:38:51;3.30;99.90
22114;DHT22;11223;49.968;9.062;2022-11-20T08:41:17;3.30;99.90
22114;DHT22;11223;49.968;9.062;2022-11-20T08:43:59;3.30;99.90
22114;DHT22;11223;49.968;9.062;2022-11-20T08:46:26;3.30;99.90
22114;DHT22;11223;49.968;9.062;2022-11-20T08:48:52;3.30;99.90
22114;DHT22;11223;49.968;9.062;2022-11-20T08:51:19;3.40;99.90
22114;DHT22;11223;49.968;9.062;2022-11-20T08:53:45;3.40;99.90
22114;DHT22;11223;49.968;9.062;2022-11-20T08:56:11;3.40;99.90
22114;DHT22;11223;49.968;9.062;2022-11-20T08:58:38;3.50;99.90
22114;DHT22;11223;49.968;9.062;2022-11-20T09:01:04;3.50;99.90
22114;DHT22;11223;49.968;9.062;2022-11-20T09:03:29;3.60;99.90
22114;DHT22;11223;49.968;9.062;2022-11-20T09:05:59;3.60;99.90
22114;DHT22;11223;49.968;9.062;2022-11-20T09:08:27;3.70;99.90
22114;DHT22;11223;49.968;9.062;2022-11-20T09:10:53;3.70;99.90
22114;DHT22;11223;49.968;9.062;2022-11-20T09:13:23;3.80;99.90
22114;DHT22;11223;49.968;9.062;2022-11-20T09:15:56;3.80;99.90
22114;DHT22;11223;49.968;9.062;2022-11-20T09:18:23;3.80;99.90
22114;DHT22;11223;49.968;9.062;2022-11-20T09:20:49;3.90;99.90
22114;DHT22;11223;49.968;9.062;2022-11-20T09:23:15;3.90;99.90
22114;DHT22;11223;49.968;9.062;2022-11-20T09:25:41;3.90;99.90
22114;DHT22;11223;49.968;9.062;2022-11-20T09:28:07;3.90;99.90
22114;DHT22;11223;49.968;9.062;2022-11-20T09:30:32;4.00;99.90
22114;DHT22;11223;49.968;9.062;2022-11-20T09:32:58;4.00;99.90
22114;DHT22;11223;49.968;9.062;2022-11-20T09:35:23;4.10;99.90
22114;DHT22;11223;49.968;9.062;2022-11-20T09:37:49;4.10;99.90
22114;DHT22;11223;49.968;9.062;2022-11-20T09:40:26;4.20;99.90
22114;DHT22;11223;49.968;9.062;2022-11-20T09:43:17;4.20;99.90
22114;DHT22;11223;49.968;9.062;2022-11-20T09:45:56;4.30;99.90
22114;DHT22;11223;49.968;9.062;2022-11-20T09:48:55;4.30;99.90
22114;DHT22;11223;49.968;9.062;2022-11-20T09:51:53;4.30;99.90
22114;DHT22;11223;49.968;9.062;2022-11-20T09:54:29;4.40;99.90
22114;DHT22;11223;49.968;9.062;2022-11-20T09:57:01;4.40;99.90
22114;DHT22;11223;49.968;9.062;2022-11-20T09:59:52;4.50;99.90
22114;DHT22;11223;49.968;9.062;2022-11-20T10:07:51;4.60;99.90
22114;DHT22;11223;49.968;9.062;2022-11-20T10:10:56;4.60;99.90
22114;DHT22;11223;49.968;9.062;2022-11-20T10:21:30;4.60;99.90
22114;DHT22;11223;49.968;9.062;2022-11-20T10:30:22;4.60;99.90
22114;DHT22;11223;49.968;9.062;2022-11-20T10:32:53;4.60;99.90
22114;DHT22;11223;49.968;9.062;2022-11-20T10:38:18;4.60;99.90
22114;DHT22;11223;49.968;9.062;2022-11-20T10:40:50;4.60;99.90
22114;DHT22;11223;49.968;9.062;2022-11-20T10:43:21;4.60;99.90
22114;DHT22;11223;49.968;9.062;2022-11-20T10:46:08;4.60;99.90
22114;DHT22;11223;49.968;9.062;2022-11-20T10:48:38;4.60;99.90
22114;DHT22;11223;49.968;9.062;2022-11-20T10:51:37;4.60;99.90
22114;DHT22;11223;49.968;9.062;2022-11-20T10:56:42;4.60;99.90
22114;DHT22;11223;49.968;9.062;2022-11-20T11:01:58;4.60;99.90
22114;DHT22;11223;49.968;9.062;2022-11-20T11:04:40;4.60;99.90
22114;DHT22;11223;49.968;9.062;2022-11-20T11:07:34;4.60;99.90
22114;DHT22;11223;49.968;9.062;2022-11-20T11:10:05;4.60;99.90
22114;DHT22;11223;49.968;9.062;2022-11-20T11:12:44;4.60;99.90
22114;DHT22;11223;49.968;9.062;2022-11-20T11:15:24;4.60;99.90
22114;DHT22;11223;49.968;9.062;2022-11-20T11:17:49;4.60;99.90
22114;DHT22;11223;49.968;9.062;2022-11-20T11:22:49;4.60;99.90
22114;DHT22;11223;49.968;9.062;2022-11-20T11:25:30;4.60;99.90
22114;DHT22;11223;49.968;9.062;2022-11-20T11:28:01;4.60;99.90
22114;DHT22;11223;49.968;9.062;2022-11-20T11:30:28;4.60;99.90
22114;DHT22;11223;49.968;9.062;2022-11-20T11:33:06;4.60;99.90
22114;DHT22;11223;49.968;9.062;2022-11-20T11:35:45;4.60;99.90
22114;DHT22;11223;49.968;9.062;2022-11-20T11:38:15;4.60;99.90
22114;DHT22;11223;49.968;9.062;2022-11-20T11:40:42;4.70;99.90
22114;DHT22;11223;49.968;9.062;2022-11-20T11:43:17;4.70;99.90
22114;DHT22;11223;49.968;9.062;2022-11-20T11:46:31;4.80;99.90
22114;DHT22;11223;49.968;9.062;2022-11-20T11:51:56;4.90;99.90
22114;DHT22;11223;49.968;9.062;2022-11-20T11:54:28;4.90;99.90
22114;DHT22;11223;49.968;9.062;2022-11-20T11:56:57;4.90;99.90
22114;DHT22;11223;49.968;9.062;2022-11-20T12:05:39;5.00;99.90
22114;DHT22;11223;49.968;9.062;2022-11-20T12:11:18;5.00;99.90
22114;DHT22;11223;49.968;9.062;2022-11-20T12:13:55;5.00;99.90
22114;DHT22;11223;49.968;9.062;2022-11-20T12:16:23;4.90;99.90
22114;DHT22;11223;49.968;9.062;2022-11-20T12:18:51;4.90;99.90
22114;DHT22;11223;49.968;9.062;2022-11-20T12:21:32;4.90;99.90
22114;DHT22;11223;49.968;9.062;2022-11-20T12:27:23;4.90;99.90
22114;DHT22;11223;49.968;9.062;2022-11-20T12:30:11;4.90;99.90
22114;DHT22;11223;49.968;9.062;2022-11-20T12:43:34;5.10;99.90
22114;DHT22;11223;49.968;9.062;2022-11-20T12:46:49;5.10;99.90
22114;DHT22;11223;49.968;9.062;2022-11-20T12:49:41;5.10;99.90
22114;DHT22;11223;49.968;9.062;2022-11-20T12:52:47;5.20;99.90
22114;DHT22;11223;49.968;9.062;2022-11-20T12:55:33;5.20;99.90
22114;DHT22;11223;49.968;9.062;2022-11-20T12:58:11;5.30;99.90
22114;DHT22;11223;49.968;9.062;2022-11-20T13:00:47;5.30;99.90
22114;DHT22;11223;49.968;9.062;2022-11-20T13:03:39;5.30;99.90
22114;DHT22;11223;49.968;9.062;2022-11-20T13:08:35;5.30;99.90
22114;DHT22;11223;49.968;9.062;2022-11-20T13:11:17;5.30;99.90
22114;DHT22;11223;49.968;9.062;2022-11-20T13:16:55;5.30;99.90
22114;DHT22;11223;49.968;9.062;2022-11-20T13:19:22;5.40;99.90
22114;DHT22;11223;49.968;9.062;2022-11-20T13:21:49;5.40;99.90
22114;DHT22;11223;49.968;9.062;2022-11-20T13:26:44;5.40;99.90
22114;DHT22;11223;49.968;9.062;2022-11-20T13:29:19;5.40;99.90
22114;DHT22;11223;49.968;9.062;2022-11-20T13:31:47;5.40;99.90
22114;DHT22;11223;49.968;9.062;2022-11-20T13:34:27;5.40;99.90
22114;DHT22;11223;49.968;9.062;2022-11-20T13:36:54;5.50;99.90
22114;DHT22;11223;49.968;9.062;2022-11-20T13:39:37;5.50;99.90
22114;DHT22;11223;49.968;9.062;2022-11-20T13:42:22;5.50;99.90
22114;DHT22;11223;49.968;9.062;2022-11-20T13:44:54;5.50;99.90
22114;DHT22;11223;49.968;9.062;2022-11-20T13:47:23;5.50;99.90
22114;DHT22;11223;49.968;9.062;2022-11-20T13:49:51;5.50;99.90
22114;DHT22;11223;49.968;9.062;2022-11-20T14:00:51;5.50;99.90
22114;DHT22;11223;49.968;9.062;2022-11-20T14:03:24;5.50;99.90
22114;DHT22;11223;49.968;9.062;2022-11-20T14:06:11;5.40;99.90
22114;DHT22;11223;49.968;9.062;2022-11-20T14:08:47;5.40;99.90
22114;DHT22;11223;49.968;9.062;2022-11-20T14:11:46;5.40;99.90
22114;DHT22;11223;49.968;9.062;2022-11-20T14:14:19;5.40;99.90
22114;DHT22;11223;49.968;9.062;2022-11-20T14:16:47;5.40;99.90
22114;DHT22;11223;49.968;9.062;2022-11-20T14:21:52;5.40;99.90
22114;DHT22;11223;49.968;9.062;2022-11-20T14:24:22;5.40;99.90
22114;DHT22;11223;49.968;9.062;2022-11-20T14:26:49;5.40;99.90
22114;DHT22;11223;49.968;9.062;2022-11-20T14:29:21;5.30;99.90
22114;DHT22;11223;49.968;9.062;2022-11-20T14:31:50;5.40;99.90
22114;DHT22;11223;49.968;9.062;2022-11-20T14:34:22;5.40;99.90
22114;DHT22;11223;49.968;9.062;2022-11-20T14:36:53;5.40;99.90
22114;DHT22;11223;49.968;9.062;2022-11-20T14:39:22;5.40;99.90
22114;DHT22;11223;49.968;9.062;2022-11-20T14:41:54;5.40;99.90
22114;DHT22;11223;49.968;9.062;2022-11-20T14:44:34;5.40;99.90
22114;DHT22;11223;49.968;9.062;2022-11-20T14:47:02;5.40;99.90
22114;DHT22;11223;49.968;9.062;2022-11-20T14:49:30;5.40;99.90
22114;DHT22;11223;49.968;9.062;2022-11-20T14:52:02;5.30;99.90
22114;DHT22;11223;49.968;9.062;2022-11-20T14:54:49;5.30;99.90
22114;DHT22;11223;49.968;9.062;2022-11-20T14:57:28;5.30;99.90
22114;DHT22;11223;49.968;9.062;2022-11-20T15:02:41;5.30;99.90
22114;DHT22;11223;49.968;9.062;2022-11-20T15:05:07;5.30;99.90
22114;DHT22;11223;49.968;9.062;2022-11-20T15:07:45;5.20;99.90
22114;DHT22;11223;49.968;9.062;2022-11-20T15:10:27;5.20;99.90
22114;DHT22;11223;49.968;9.062;2022-11-20T15:12:54;5.20;99.90
22114;DHT22;11223;49.968;9.062;2022-11-20T15:17:55;5.20;99.90
22114;DHT22;11223;49.968;9.062;2022-11-20T15:20:31;5.20;99.90
22114;DHT22;11223;49.968;9.062;2022-11-20T15:22:57;5.20;99.90
22114;DHT22;11223;49.968;9.062;2022-11-20T15:25:23;5.10;99.90
22114;DHT22;11223;49.968;9.062;2022-11-20T15:27:53;5.20;99.90
22114;DHT22;11223;49.968;9.062;2022-11-20T15:30:20;5.10;99.90
22114;DHT22;11223;49.968;9.062;2022-11-20T15:32:47;5.10;99.90
22114;DHT22;11223;49.968;9.062;2022-11-20T15:35:13;5.10;99.90
22114;DHT22;11223;49.968;9.062;2022-11-20T15:37:40;5.10;99.90
22114;DHT22;11223;49.968;9.062;2022-11-20T15:40:07;5.10;99.90
22114;DHT22;11223;49.968;9.062;2022-11-20T15:42:33;5.10;99.90
22114;DHT22;11223;49.968;9.062;2022-11-20T15:44:59;5.00;99.90
22114;DHT22;11223;49.968;9.062;2022-11-20T15:47:32;5.00;99.90
22114;DHT22;11223;49.968;9.062;2022-11-20T15:49:58;5.00;99.90
22114;DHT22;11223;49.968;9.062;2022-11-20T15:52:24;5.00;99.90
22114;DHT22;11223;49.968;9.062;2022-11-20T15:54:50;5.00;99.90
22114;DHT22;11223;49.968;9.062;2022-11-20T15:57:16;5.00;99.90
22114;DHT22;11223;49.968;9.062;2022-11-20T15:59:41;5.00;99.90
22114;DHT22;11223;49.968;9.062;2022-11-20T16:02:11;5.00;99.90
22114;DHT22;11223;49.968;9.062;2022-11-20T16:04:37;4.90;99.90
22114;DHT22;11223;49.968;9.062;2022-11-20T16:07:02;5.00;99.90
22114;DHT22;11223;49.968;9.062;2022-11-20T16:09:28;5.00;99.90
22114;DHT22;11223;49.968;9.062;2022-11-20T16:11:54;4.90;99.90
22114;DHT22;11223;49.968;9.062;2022-11-20T16:14:19;4.90;99.90
22114;DHT22;11223;49.968;9.062;2022-11-20T16:17:04;4.90;99.90
22114;DHT22;11223;49.968;9.062;2022-11-20T16:19:29;4.90;99.90
22114;DHT22;11223;49.968;9.062;2022-11-20T16:21:56;4.90;99.90
22114;DHT22;11223;49.968;9.062;2022-11-20T16:24:22;4.90;99.90
22114;DHT22;11223;49.968;9.062;2022-11-20T16:26:48;4.90;99.90
22114;DHT22;11223;49.968;9.062;2022-11-20T16:29:13;4.90;99.90
22114;DHT22;11223;49.968;9.062;2022-11-20T16:31:39;4.90;99.90
22114;DHT22;11223;49.968;9.062;2022-11-20T16:34:06;4.90;99.90
22114;DHT22;11223;49.968;9.062;2022-11-20T16:36:32;4.90;99.90
22114;DHT22;11223;49.968;9.062;2022-11-20T16:39:00;4.90;99.90
22114;DHT22;11223;49.968;9.062;2022-11-20T16:41:27;4.90;99.90
22114;DHT22;11223;49.968;9.062;2022-11-20T16:43:55;5.00;99.90
22114;DHT22;11223;49.968;9.062;2022-11-20T16:46:25;4.90;99.90
22114;DHT22;11223;49.968;9.062;2022-11-20T16:49:06;5.00;99.90
22114;DHT22;11223;49.968;9.062;2022-11-20T16:51:35;5.00;99.90
22114;DHT22;11223;49.968;9.062;2022-11-20T16:54:05;5.00;99.90
22114;DHT22;11223;49.968;9.062;2022-11-20T16:56:32;5.00;99.90
22114;DHT22;11223;49.968;9.062;2022-11-20T16:58:58;5.00;99.90
22114;DHT22;11223;49.968;9.062;2022-11-20T17:01:25;5.00;99.90
22114;DHT22;11223;49.968;9.062;2022-11-20T17:06:22;5.00;99.90
22114;DHT22;11223;49.968;9.062;2022-11-20T17:08:48;5.00;99.90
22114;DHT22;11223;49.968;9.062;2022-11-20T17:11:16;5.10;99.90
22114;DHT22;11223;49.968;9.062;2022-11-20T17:13:43;5.00;99.90
22114;DHT22;11223;49.968;9.062;2022-11-20T17:16:11;5.00;99.90
22114;DHT22;11223;49.968;9.062;2022-11-20T17:18:37;5.10;99.90
22114;DHT22;11223;49.968;9.062;2022-11-20T17:21:04;5.10;99.90
22114;DHT22;11223;49.968;9.062;2022-11-20T17:23:40;5.10;99.90
22114;DHT22;11223;49.968;9.062;2022-11-20T17:26:18;5.10;99.90
22114;DHT22;11223;49.968;9.062;2022-11-20T17:28:51;5.10;99.90
22114;DHT22;11223;49.968;9.062;2022-11-20T17:31:17;5.10;99.90